Time;durP1;ratioP1;P1;durP2;ratioP2;P2;SDS_P1;SDS_P2;PMS_P1;PMS_P2;Temp;Humidity;BMP_temperature;BMP_pressure;BME280_temperature;BME280_humidity;BME280_pressure;Samples;Min_cycle;Max_cycle;Signal;HPM_P1;HPM_P2
2024/01/22 00:02:46;;;;;;;6.00;4.90;;;;;;;4.77;46.81;101576.30;104449;1266;59742;-59
2024/01/22 00:05:58;;;;;;;8.00;5.30;;;;;;;4.74;46.54;101571.08;103954;1266;59881;-60
2024/01/22 00:09:10;;;;;;;4.90;4.50;;;;;;;4.63;46.44;101569.04;103594;1269;72798;-61
2024/01/22 00:12:21;;;;;;;5.80;4.40;;;;;;;4.60;47.16;101568.14;106664;1265;69670;-60
2024/01/22 00:15:29;;;;;;;6.50;5.30;;;;;;;4.69;47.03;101564.94;106876;1265;72900;-59
2024/01/22 00:18:25;;;;;;;7.30;4.60;;;;;;;4.75;47.16;101566.23;106697;1266;58390;-59
2024/01/22 00:21:36;;;;;;;5.80;5.20;;;;;;;4.69;47.48;101560.95;106713;1265;59680;-59
2024/01/22 00:24:47;;;;;;;7.20;4.50;;;;;;;4.72;47.43;101559.58;106679;1265;73299;-59
2024/01/22 00:31:05;;;;;;;6.20;4.40;;;;;;;4.81;47.33;101560.58;106549;1266;72513;-59
2024/01/22 00:37:59;;;;;;;7.00;3.80;;;;;;;4.82;47.34;101557.45;106734;1266;59728;-59
2024/01/22 00:41:10;;;;;;;5.40;4.50;;;;;;;4.88;47.54;101558.73;106676;1265;71759;-59
2024/01/22 00:44:21;;;;;;;5.50;4.30;;;;;;;4.97;47.74;101563.16;106821;1265;70227;-59
2024/01/22 00:46:58;;;;;;;5.50;4.80;;;;;;;4.95;47.75;101559.85;106619;1266;72513;-59
2024/01/22 00:50:09;;;;;;;5.60;5.00;;;;;;;4.92;47.82;101563.29;106649;1265;60823;-60
2024/01/22 00:53:27;;;;;;;8.20;5.30;;;;;;;4.83;47.98;101561.63;106604;1266;60748;-59
2024/01/22 00:56:45;;;;;;;6.10;4.90;;;;;;;4.74;47.79;101560.14;106780;1265;72228;-59
2024/01/22 01:04:14;;;;;;;6.30;5.30;;;;;;;4.86;47.33;101560.80;106799;1265;72451;-60
2024/01/22 01:07:25;;;;;;;6.70;5.10;;;;;;;4.83;47.71;101560.76;107512;1259;60585;-59
2024/01/22 01:10:02;;;;;;;7.30;5.20;;;;;;;4.87;47.93;101552.30;107534;1258;59667;-59
2024/01/22 01:16:47;;;;;;;7.10;5.40;;;;;;;4.98;47.95;101556.23;107550;1259;69161;-59
2024/01/22 01:19:58;;;;;;;7.60;5.60;;;;;;;4.85;47.95;101557.13;107555;1259;73117;-59
2024/01/22 01:26:39;;;;;;;7.70;4.60;;;;;;;4.83;47.91;101560.95;107592;1258;59674;-59
2024/01/22 01:29:52;;;;;;;8.20;5.30;;;;;;;4.77;47.86;101563.64;107567;1258;73013;-60
2024/01/22 01:33:03;;;;;;;8.90;5.40;;;;;;;4.80;47.84;101571.84;107532;1259;69551;-59
2024/01/22 01:36:14;;;;;;;8.20;5.30;;;;;;;4.89;47.53;101576.13;107488;1259;72911;-59
2024/01/22 01:39:26;;;;;;;6.80;5.30;;;;;;;5.00;47.66;101576.41;107534;1259;60944;-59
2024/01/22 01:42:39;;;;;;;8.10;5.50;;;;;;;5.01;47.32;101580.42;107574;1259;58734;-58
2024/01/22 01:45:51;;;;;;;10.80;6.00;;;;;;;5.07;47.22;101580.84;107459;1259;72923;-60
2024/01/22 01:52:49;;;;;;;7.40;5.80;;;;;;;5.14;46.93;101578.98;107625;1258;73396;-59
2024/01/22 02:00:19;;;;;;;6.90;4.70;;;;;;;4.81;47.53;101555.70;107704;1259;60282;-59
2024/01/22 02:03:30;;;;;;;9.70;6.20;;;;;;;4.65;47.44;101545.27;107572;1258;72921;-60
2024/01/22 02:06:41;;;;;;;8.50;6.00;;;;;;;4.69;47.71;101550.86;107515;1259;69310;-60
2024/01/22 02:09:53;;;;;;;9.50;6.40;;;;;;;4.72;47.76;101551.59;107509;1258;72374;-59
2024/01/22 02:13:06;;;;;;;12.20;5.70;;;;;;;4.70;48.06;101545.32;107496;1259;60778;-59
2024/01/22 02:16:20;;;;;;;10.00;5.70;;;;;;;4.73;47.79;101543.09;107530;1259;60706;-60
2024/01/22 02:19:35;;;;;;;10.60;6.40;;;;;;;4.81;47.63;101537.63;107546;1258;73601;-59
2024/01/22 02:22:49;;;;;;;12.40;6.80;;;;;;;4.65;47.92;101552.21;107616;1258;69965;-59
2024/01/22 02:26:04;;;;;;;7.10;5.80;;;;;;;4.62;47.92;101556.68;107524;1259;72355;-59
2024/01/22 02:33:27;;;;;;;8.40;6.30;;;;;;;4.55;47.84;101577.61;107584;1258;58703;-60
2024/01/22 02:36:38;;;;;;;9.00;7.10;;;;;;;4.50;48.00;101573.91;107562;1259;72938;-60
2024/01/22 02:39:52;;;;;;;8.40;6.10;;;;;;;4.58;48.25;101569.15;107560;1260;69679;-60
2024/01/22 02:43:06;;;;;;;9.00;5.70;;;;;;;4.70;47.95;101573.63;107569;1259;72530;-60
2024/01/22 02:46:17;;;;;;;10.90;7.20;;;;;;;4.69;47.80;101576.74;107502;1259;61801;-59
2024/01/22 02:49:28;;;;;;;11.80;7.40;;;;;;;4.79;47.97;101574.27;107530;1259;59136;-59
2024/01/22 02:52:34;;;;;;;9.90;5.80;;;;;;;4.72;47.86;101569.66;107540;1259;72750;-60
2024/01/22 02:55:48;;;;;;;9.20;5.80;;;;;;;4.62;47.98;101574.59;107528;1259;70087;-60
2024/01/22 02:58:22;;;;;;;8.70;5.20;;;;;;;4.60;47.96;101574.90;107524;1259;71759;-59
2024/01/22 03:01:33;;;;;;;7.90;5.70;;;;;;;4.56;47.93;101570.70;107509;1259;59059;-59
2024/01/22 03:04:45;;;;;;;6.70;5.50;;;;;;;4.41;48.36;101572.05;107619;1258;59330;-59
2024/01/22 03:07:57;;;;;;;7.10;5.40;;;;;;;4.35;48.37;101574.57;107485;1260;72814;-59
2024/01/22 03:11:08;;;;;;;7.30;5.80;;;;;;;4.45;48.39;101578.88;107492;1258;68075;-59
2024/01/22 03:14:19;;;;;;;6.90;5.50;;;;;;;4.54;48.55;101579.33;107436;1259;72488;-59
2024/01/22 03:17:31;;;;;;;9.10;6.10;;;;;;;4.67;48.31;101570.64;107537;1258;59348;-59
2024/01/22 03:20:43;;;;;;;7.10;5.90;;;;;;;4.63;48.40;101565.73;107632;1258;59723;-60
2024/01/22 03:23:56;;;;;;;9.30;6.60;;;;;;;4.62;48.07;101565.04;107578;1257;72156;-59
2024/01/22 03:27:08;;;;;;;8.70;6.00;;;;;;;4.65;48.14;101561.08;107700;1257;69209;-59
2024/01/22 03:30:20;;;;;;;7.90;6.00;;;;;;;4.58;48.28;101565.68;107581;1258;73545;-59
2024/01/22 03:33:31;;;;;;;9.90;6.40;;;;;;;4.48;48.64;101563.30;107565;1258;59288;-59
2024/01/22 03:36:43;;;;;;;11.40;6.40;;;;;;;4.39;48.46;101558.13;107604;1257;59732;-59
2024/01/22 03:43:12;;;;;;;6.90;5.40;;;;;;;4.30;48.70;101567.05;107591;1260;69607;-60
2024/01/22 03:46:23;;;;;;;10.60;6.70;;;;;;;4.23;48.68;101557.77;107591;1258;72245;-59
2024/01/22 03:49:37;;;;;;;8.40;6.70;;;;;;;4.37;49.24;101561.40;107561;1259;60976;-59
2024/01/22 03:52:48;;;;;;;8.90;6.50;;;;;;;4.48;48.83;101557.21;107609;1257;60105;-60
2024/01/22 03:55:25;;;;;;;8.10;6.10;;;;;;;4.51;49.00;101552.38;107590;1257;73378;-59
2024/01/22 03:58:36;;;;;;;8.60;6.10;;;;;;;4.59;48.83;101556.65;107578;1259;69803;-60
2024/01/22 04:01:47;;;;;;;8.00;6.00;;;;;;;4.62;48.78;101565.38;107680;1258;72436;-60
2024/01/22 04:04:58;;;;;;;8.50;6.50;;;;;;;4.61;48.54;101565.90;107559;1259;58970;-60
2024/01/22 04:08:10;;;;;;;9.10;6.50;;;;;;;4.60;48.66;101563.61;107545;1258;59861;-59
2024/01/22 04:15:09;;;;;;;8.90;6.40;;;;;;;4.54;48.46;101570.14;107550;1257;68546;-59
2024/01/22 04:17:42;;;;;;;7.30;6.50;;;;;;;4.61;48.33;101573.02;107564;1258;72891;-59
2024/01/22 04:20:57;;;;;;;9.50;6.00;;;;;;;4.55;48.24;101572.77;107577;1259;59679;-59
2024/01/22 04:27:57;;;;;;;8.40;6.00;;;;;;;4.40;48.61;101579.86;107561;1260;73522;-59
2024/01/22 04:35:27;;;;;;;6.80;5.70;;;;;;;4.41;48.64;101579.71;107670;1260;72545;-60
2024/01/22 04:38:41;;;;;;;9.80;6.80;;;;;;;4.38;48.67;101572.89;107572;1258;59813;-59
2024/01/22 04:41:58;;;;;;;8.50;6.70;;;;;;;4.37;48.58;101572.69;107586;1257;59775;-59
2024/01/22 04:45:12;;;;;;;10.20;7.30;;;;;;;4.42;48.82;101574.32;107583;1257;73057;-60
2024/01/22 04:48:27;;;;;;;8.20;7.00;;;;;;;4.38;49.05;101567.85;107556;1257;69202;-60
2024/01/22 04:50:59;;;;;;;9.40;7.40;;;;;;;4.36;49.12;101560.88;107553;1259;73148;-59
2024/01/22 04:54:10;;;;;;;8.80;6.80;;;;;;;4.39;49.28;101555.20;107614;1259;60009;-60
2024/01/22 04:56:56;;;;;;;9.20;7.30;;;;;;;4.47;49.25;101549.38;107634;1260;59707;-60
2024/01/22 05:00:07;;;;;;;11.90;8.30;;;;;;;4.54;49.29;101542.02;107625;1259;73696;-59
2024/01/22 05:07:00;;;;;;;9.80;7.10;;;;;;;4.41;49.22;101539.07;107673;1257;72393;-59
2024/01/22 05:09:43;;;;;;;9.40;7.10;;;;;;;4.40;49.12;101539.05;107560;1257;59915;-59
2024/01/22 05:12:54;;;;;;;11.70;7.90;;;;;;;4.39;49.02;101537.82;107617;1257;59683;-60
2024/01/22 05:20:24;;;;;;;9.90;7.50;;;;;;;4.32;49.40;101537.39;107689;1258;69196;-59
2024/01/22 05:23:34;;;;;;;8.10;7.10;;;;;;;4.28;49.12;101539.59;107566;1259;71219;-60
2024/01/22 05:26:03;;;;;;;11.10;7.80;;;;;;;4.35;49.41;101538.28;107569;1260;61019;-59
2024/01/22 05:29:01;;;;;;;11.90;8.50;;;;;;;4.33;49.25;101542.95;107576;1257;61196;-59
2024/01/22 05:31:58;;;;;;;11.20;8.60;;;;;;;4.29;49.55;101544.29;107538;1260;73695;-59
2024/01/22 05:35:09;;;;;;;12.10;8.90;;;;;;;4.29;49.42;101543.08;107533;1258;69563;-59
2024/01/22 05:38:21;;;;;;;10.00;8.00;;;;;;;4.29;49.55;101544.48;107517;1259;72892;-60
2024/01/22 05:41:32;;;;;;;13.00;9.10;;;;;;;4.30;50.11;101541.70;107563;1259;63107;-60
2024/01/22 05:44:12;;;;;;;10.50;8.40;;;;;;;4.25;49.84;101540.41;107567;1260;60782;-59
2024/01/22 05:46:58;;;;;;;10.00;8.10;;;;;;;4.28;49.80;101538.73;107600;1258;74070;-60
2024/01/22 05:56:20;;;;;;;12.00;9.30;;;;;;;4.28;49.70;101542.20;101378;1293;603278;-60
2024/01/22 05:58:52;;;;;;;13.40;9.30;;;;;;;4.30;49.79;101542.05;103493;1273;62004;-60
2024/01/22 06:01:26;;;;;;;10.40;9.20;;;;;;;4.31;49.71;101542.75;104318;1275;60296;-59
2024/01/22 06:03:53;;;;;;;12.80;9.80;;;;;;;4.35;49.78;101536.02;104165;1268;70717;-61
2024/01/22 06:06:21;;;;;;;13.60;10.10;;;;;;;4.36;49.55;101527.70;104304;1266;70556;-61
2024/01/22 06:08:49;;;;;;;12.20;9.60;;;;;;;4.33;49.78;101523.16;103695;1270;224118;-62
2024/01/22 06:11:18;;;;;;;13.60;9.70;;;;;;;4.36;49.75;101517.29;104024;1265;61373;-61
2024/01/22 06:13:47;;;;;;;12.10;8.90;;;;;;;4.47;49.43;101521.95;104256;1260;59692;-61
2024/01/22 06:16:28;;;;;;;10.20;8.90;;;;;;;4.44;49.83;101519.66;105144;1261;72232;-62
2024/01/22 06:18:56;;;;;;;10.60;9.10;;;;;;;4.45;49.56;101513.25;104402;1263;69331;-61
2024/01/22 06:21:25;;;;;;;11.90;9.20;;;;;;;4.47;49.67;101506.48;105165;1263;71148;-61
2024/01/22 06:23:53;;;;;;;11.70;9.20;;;;;;;4.45;49.46;101495.88;104064;1277;61663;-64
2024/01/22 06:26:22;;;;;;;11.30;8.60;;;;;;;4.46;49.66;101496.75;105181;1259;60075;-60
2024/01/22 06:28:52;;;;;;;10.90;8.30;;;;;;;4.49;49.79;101496.10;104165;1263;73352;-62
2024/01/22 06:31:20;;;;;;;10.80;8.30;;;;;;;4.52;49.78;101498.05;104792;1264;68634;-62
2024/01/22 06:33:49;;;;;;;11.30;8.80;;;;;;;4.48;49.46;101500.06;104535;1259;72603;-62
2024/01/22 06:36:18;;;;;;;12.20;8.40;;;;;;;4.48;49.80;101495.39;105080;1265;60585;-65
2024/01/22 06:38:46;;;;;;;11.80;8.80;;;;;;;4.44;49.69;101500.55;103922;1258;59751;-64
2024/01/22 06:41:15;;;;;;;11.40;8.50;;;;;;;4.43;50.02;101502.45;105760;1263;72911;-66
2024/01/22 06:43:46;;;;;;;31.20;16.00;;;;;;;4.51;49.86;101505.33;104830;1261;69084;-65
2024/01/22 06:46:14;;;;;;;75.10;34.50;;;;;;;4.54;49.97;101508.84;104312;1261;72919;-63
2024/01/22 06:48:42;;;;;;;84.40;35.50;;;;;;;4.52;49.74;101511.58;104384;1261;63043;-65
2024/01/22 06:51:11;;;;;;;44.70;22.60;;;;;;;4.56;49.38;101515.79;104926;1258;59711;-64
2024/01/22 06:53:40;;;;;;;33.60;18.00;;;;;;;4.53;49.60;101515.23;105299;1265;73287;-65
2024/01/22 06:56:08;;;;;;;23.60;13.40;;;;;;;4.47;49.58;101511.36;104703;1263;69086;-67
2024/01/22 06:58:38;;;;;;;20.00;12.20;;;;;;;4.46;49.84;101506.65;104638;1260;72946;-66
2024/01/22 07:01:07;;;;;;;33.90;18.30;;;;;;;4.42;49.51;101507.13;104601;1263;60752;-67
2024/01/22 07:03:37;;;;;;;28.70;16.50;;;;;;;4.39;49.79;101502.05;104635;1262;59756;-67
2024/01/22 07:06:05;;;;;;;22.60;12.80;;;;;;;4.23;49.92;101485.36;105425;1261;73299;-67
2024/01/22 07:08:33;;;;;;;15.70;10.20;;;;;;;4.34;49.90;101512.76;105554;1259;70022;-66
2024/01/22 07:11:01;;;;;;;;;;;;;;;4.30;49.60;101522.60;104911;1256;72447;-66
2024/01/22 07:13:29;;;;;;;12.20;9.10;;;;;;;4.31;50.27;101530.77;105074;1262;61113;-66
2024/01/22 07:15:57;;;;;;;13.20;9.90;;;;;;;4.33;50.21;101531.84;105221;1257;62058;-62
2024/01/22 07:18:25;;;;;;;;;;;;;;;4.33;50.22;101540.52;104409;1275;72893;-65
2024/01/22 07:20:53;;;;;;;18.20;11.30;;;;;;;4.38;50.08;101540.41;104883;1263;69326;-61
2024/01/22 07:23:21;;;;;;;14.30;9.50;;;;;;;4.41;49.80;101536.12;103929;1262;73240;-61
2024/01/22 07:25:49;;;;;;;11.90;8.40;;;;;;;4.50;49.65;101538.98;105333;1258;60981;-62
2024/01/22 07:28:17;;;;;;;9.40;7.60;;;;;;;4.52;49.34;101534.52;105366;1262;59756;-62
2024/01/22 07:30:46;;;;;;;;;;;;;;;4.51;49.77;101538.15;104789;1263;72760;-61
2024/01/22 07:33:14;;;;;;;10.40;7.20;;;;;;;4.60;49.92;101546.94;104392;1263;69253;-61
2024/01/22 07:35:41;;;;;;;10.30;8.10;;;;;;;4.62;49.55;101546.29;104373;1261;71528;-61
2024/01/22 07:38:09;;;;;;;9.60;7.80;;;;;;;4.60;49.87;101545.20;104795;1261;63304;-62
2024/01/22 07:40:37;;;;;;;11.60;8.50;;;;;;;4.57;49.76;101546.05;105007;1263;59982;-63
2024/01/22 07:43:05;;;;;;;;;;;;;;;4.54;49.68;101547.55;104794;1261;73044;-61
2024/01/22 07:45:33;;;;;;;10.40;8.00;;;;;;;4.59;49.87;101559.09;104622;1257;69059;-61
2024/01/22 07:48:01;;;;;;;10.30;8.10;;;;;;;4.63;49.75;101554.96;105080;1260;72456;-61
2024/01/22 07:50:31;;;;;;;8.80;7.70;;;;;;;4.68;49.48;101554.86;104472;1257;60641;-61
2024/01/22 07:53:00;;;;;;;11.10;7.80;;;;;;;4.71;49.73;101552.63;104559;1260;60087;-61
2024/01/22 07:55:28;;;;;;;8.80;7.40;;;;;;;4.82;49.47;101547.88;105300;1261;71408;-61
2024/01/22 07:57:55;;;;;;;;;;;;;;;4.80;49.63;101553.27;105682;1263;71716;-65
2024/01/22 08:00:23;;;;;;;9.80;7.80;;;;;;;4.77;49.74;101549.40;105152;1263;72820;-61
2024/01/22 08:02:51;;;;;;;10.40;7.90;;;;;;;4.75;49.31;101553.89;104346;1267;60621;-61
2024/01/22 08:05:19;;;;;;;9.30;7.70;;;;;;;4.65;49.57;101551.16;104422;1263;60120;-60
2024/01/22 08:07:48;;;;;;;9.40;8.00;;;;;;;4.48;49.62;101551.66;104801;1260;73499;-63
2024/01/22 08:10:16;;;;;;;9.90;8.10;;;;;;;4.51;49.84;101556.73;105237;1262;68504;-61
2024/01/22 08:12:44;;;;;;;10.60;8.50;;;;;;;4.61;49.68;101557.72;104158;1263;73432;-62
2024/01/22 08:15:14;;;;;;;;;;;;;;;4.64;49.86;101558.46;104122;1264;59876;-61
2024/01/22 08:17:46;;;;;;;11.80;8.30;;;;;;;4.57;49.70;101553.68;104556;1260;60809;-61
2024/01/22 08:20:17;;;;;;;9.70;7.90;;;;;;;4.43;49.81;101551.76;104565;1260;73131;-63
2024/01/22 08:22:46;;;;;;;9.60;6.70;;;;;;;4.45;50.01;101555.09;105181;1257;69100;-60
2024/01/22 08:25:19;;;;;;;11.20;7.80;;;;;;;4.49;49.95;101554.10;104639;1258;73335;-62
2024/01/22 08:27:47;;;;;;;10.00;7.80;;;;;;;4.52;50.10;101548.05;104942;1260;61023;-60
2024/01/22 08:30:15;;;;;;;11.30;8.40;;;;;;;4.49;49.74;101544.04;104715;1257;59665;-61
2024/01/22 08:32:44;;;;;;;7.70;6.60;;;;;;;4.51;50.10;101541.95;105906;1257;75354;-61
2024/01/22 08:35:12;;;;;;;9.90;7.60;;;;;;;4.50;50.10;101534.30;105797;1258;69636;-61
2024/01/22 08:37:40;;;;;;;9.60;7.60;;;;;;;4.57;50.46;101543.61;104762;1257;73572;-61
2024/01/22 08:40:08;;;;;;;8.60;7.00;;;;;;;4.62;50.10;101539.32;104762;1258;60066;-60
2024/01/22 08:42:36;;;;;;;10.20;8.20;;;;;;;4.65;49.83;101544.92;104750;1260;63424;-61
2024/01/22 08:45:05;;;;;;;9.50;7.60;;;;;;;4.65;50.01;101548.39;104396;1255;73254;-60
2024/01/22 08:47:32;;;;;;;8.60;7.50;;;;;;;4.66;49.84;101541.45;105835;1257;69003;-60
2024/01/22 08:50:02;;;;;;;9.80;8.10;;;;;;;4.66;50.17;101536.23;104480;1270;72549;-61
2024/01/22 08:52:30;;;;;;;8.80;7.30;;;;;;;4.68;49.93;101534.71;105301;1260;59688;-61
2024/01/22 08:54:59;;;;;;;11.00;8.50;;;;;;;4.70;50.24;101530.20;105340;1258;60012;-60
2024/01/22 08:57:27;;;;;;;9.90;8.20;;;;;;;4.75;50.05;101519.15;105356;1257;72092;-61
2024/01/22 08:59:54;;;;;;;13.00;8.70;;;;;;;4.76;49.71;101517.59;105947;1255;70174;-60
2024/01/22 09:02:23;;;;;;;11.70;9.00;;;;;;;4.81;50.00;101517.30;105885;1257;72519;-61
2024/01/22 09:04:52;;;;;;;14.30;8.70;;;;;;;4.84;49.97;101510.91;104709;1254;62933;-61
2024/01/22 09:07:20;;;;;;;;;;;;;;;4.87;50.01;101501.89;104653;1260;59818;-62
2024/01/22 09:09:49;;;;;;;10.30;8.60;;;;;;;4.91;50.27;101494.30;105249;1255;73468;-62
2024/01/22 09:12:20;;;;;;;10.20;8.70;;;;;;;4.89;49.70;101485.24;104897;1258;71874;-61
2024/01/22 09:14:48;;;;;;;13.50;9.60;;;;;;;4.87;49.60;101479.48;105059;1256;74528;-61
2024/01/22 09:17:15;;;;;;;11.70;9.20;;;;;;;4.72;50.03;101480.01;105227;1257;60920;-62
2024/01/22 09:19:43;;;;;;;;;;;;;;;4.79;49.90;101474.19;105406;1256;59699;-64
2024/01/22 09:22:11;;;;;;;11.70;8.30;;;;;;;4.83;49.81;101470.23;104438;1267;72928;-61
2024/01/22 09:24:39;;;;;;;11.90;8.10;;;;;;;4.83;50.06;101452.86;104680;1258;69737;-60
2024/01/22 09:27:07;;;;;;;11.40;8.20;;;;;;;4.75;49.65;101451.04;104964;1254;71328;-60
2024/01/22 09:29:35;;;;;;;10.00;8.10;;;;;;;4.66;50.01;101449.90;104366;1259;62359;-61
2024/01/22 09:32:03;;;;;;;10.70;8.70;;;;;;;4.67;50.11;101437.76;105198;1257;59855;-60
2024/01/22 09:34:33;;;;;;;10.90;9.10;;;;;;;4.71;50.06;101432.93;106156;1257;73423;-61
2024/01/22 09:37:01;;;;;;;10.40;8.50;;;;;;;4.72;49.98;101432.93;105394;1254;69182;-60
2024/01/22 09:39:30;;;;;;;11.30;7.80;;;;;;;4.74;50.03;101430.36;105292;1257;72952;-61
2024/01/22 09:41:58;;;;;;;11.30;9.30;;;;;;;4.74;49.99;101430.16;104988;1266;63002;-61
2024/01/22 09:44:26;;;;;;;13.20;9.40;;;;;;;4.77;50.31;101429.88;105291;1258;59845;-61
2024/01/22 09:46:54;;;;;;;;;;;;;;;4.70;50.41;101426.48;105734;1253;73275;-62
2024/01/22 09:49:23;;;;;;;10.80;8.50;;;;;;;4.70;51.05;101423.73;105576;1257;69212;-60
2024/01/22 09:51:53;;;;;;;10.00;8.10;;;;;;;4.82;50.70;101414.45;105320;1256;72099;-61
2024/01/22 09:54:21;;;;;;;11.40;7.90;;;;;;;4.72;50.40;101400.98;104752;1259;61567;-61
2024/01/22 09:56:53;;;;;;;11.40;8.70;;;;;;;4.69;50.61;101398.17;104563;1259;59882;-61
2024/01/22 09:59:22;;;;;;;10.30;8.10;;;;;;;4.63;50.43;101397.08;104513;1255;73561;-60
2024/01/22 10:01:51;;;;;;;9.20;7.50;;;;;;;4.68;50.53;101398.16;104859;1256;69759;-60
2024/01/22 10:04:23;;;;;;;9.90;7.70;;;;;;;4.65;50.57;101395.18;104690;1257;73278;-60
2024/01/22 10:06:51;;;;;;;8.30;7.20;;;;;;;4.61;50.34;101391.49;105029;1258;61019;-60
2024/01/22 10:09:19;;;;;;;9.30;7.60;;;;;;;4.53;50.15;101390.55;104739;1258;60521;-63
2024/01/22 10:11:48;;;;;;;9.50;7.60;;;;;;;4.54;50.77;101389.86;104819;1257;73660;-62
2024/01/22 10:14:16;;;;;;;9.80;8.10;;;;;;;4.57;50.70;101385.55;105285;1257;69761;-60
2024/01/22 10:16:44;;;;;;;9.20;7.60;;;;;;;4.60;50.81;101381.59;104183;1273;72533;-61
2024/01/22 10:19:12;;;;;;;8.30;7.10;;;;;;;4.67;50.67;101380.97;103999;1267;61553;-59
2024/01/22 10:21:40;;;;;;;11.20;8.40;;;;;;;4.73;50.82;101373.36;104424;1273;59373;-61
2024/01/22 10:24:09;;;;;;;11.30;8.80;;;;;;;4.76;50.91;101369.05;104895;1256;73624;-61
2024/01/22 10:26:38;;;;;;;12.70;8.60;;;;;;;4.82;51.06;101372.05;104720;1260;70498;-61
2024/01/22 10:29:14;;;;;;;9.80;8.20;;;;;;;4.86;51.11;101371.05;104523;1260;73038;-60
2024/01/22 10:31:52;;;;;;;10.00;8.20;;;;;;;4.85;51.08;101368.44;104937;1258;61582;-61
2024/01/22 10:34:24;;;;;;;14.70;10.30;;;;;;;4.77;50.97;101364.54;105314;1256;59818;-61
2024/01/22 10:37:06;;;;;;;13.70;10.20;;;;;;;4.82;51.29;101363.02;104433;1260;73993;-60
2024/01/22 10:39:35;;;;;;;12.10;9.70;;;;;;;4.87;51.02;101354.19;105152;1257;69589;-61
2024/01/22 10:42:13;;;;;;;11.10;8.90;;;;;;;4.90;51.06;101349.35;105199;1256;71732;-60
2024/01/22 10:44:45;;;;;;;10.10;8.50;;;;;;;4.88;51.36;101341.35;105152;1257;61367;-61
2024/01/22 10:47:14;;;;;;;11.90;9.10;;;;;;;4.89;51.31;101337.88;104019;1262;60480;-64
2024/01/22 10:49:44;;;;;;;15.30;11.10;;;;;;;4.98;51.44;101336.02;104886;1261;73995;-66
2024/01/22 10:52:15;;;;;;;16.90;11.80;;;;;;;5.02;51.28;101336.06;104785;1261;68719;-64
2024/01/22 10:54:43;;;;;;;15.70;10.20;;;;;;;4.99;51.23;101330.13;104711;1258;71790;-65
2024/01/22 10:57:11;;;;;;;;;;;;;;;5.03;51.10;101337.98;104386;1256;61594;-65
2024/01/22 10:59:39;;;;;;;14.10;9.60;;;;;;;5.01;51.20;101337.45;105629;1257;60588;-65
2024/01/22 11:02:21;;;;;;;11.50;9.10;;;;;;;5.04;51.43;101335.03;105610;1255;76613;-65
2024/01/22 11:05:15;;;;;;;11.60;8.90;;;;;;;5.08;51.52;101331.92;105309;1253;70154;-65
2024/01/22 11:07:43;;;;;;;11.50;9.00;;;;;;;5.01;51.79;101330.84;104611;1261;72922;-66
2024/01/22 11:10:12;;;;;;;11.40;9.00;;;;;;;4.95;51.87;101324.19;104437;1270;61232;-64
2024/01/22 11:12:43;;;;;;;11.10;9.80;;;;;;;4.95;51.63;101318.45;104508;1257;60592;-65
2024/01/22 11:15:11;;;;;;;11.90;9.60;;;;;;;5.01;52.02;101312.23;104409;1260;73705;-65
2024/01/22 11:17:39;;;;;;;11.80;9.80;;;;;;;5.10;51.66;101310.73;104791;1253;69785;-64
2024/01/22 11:20:14;;;;;;;13.80;10.60;;;;;;;5.13;51.48;101311.27;104483;1260;72480;-64
2024/01/22 11:22:42;;;;;;;14.70;9.50;;;;;;;5.18;51.41;101306.78;104692;1256;61281;-63
2024/01/22 11:25:13;;;;;;;13.20;10.60;;;;;;;5.23;51.21;101304.38;104360;1253;60412;-64
2024/01/22 11:27:42;;;;;;;12.60;10.20;;;;;;;5.25;51.34;101297.61;105436;1253;73061;-64
2024/01/22 11:30:20;;;;;;;11.60;10.00;;;;;;;5.29;51.09;101288.93;105288;1256;70215;-64
2024/01/22 11:32:49;;;;;;;11.50;10.10;;;;;;;5.28;51.38;101274.49;104768;1254;72889;-64
2024/01/22 11:35:37;;;;;;;12.20;9.80;;;;;;;5.21;51.12;101278.80;104872;1253;60579;-64
2024/01/22 11:38:05;;;;;;;15.20;10.60;;;;;;;5.13;51.11;101282.42;105195;1257;60662;-65
2024/01/22 11:42:25;;;;;;;12.00;10.50;;;;;;;4.28;55.21;101281.77;101289;1297;616699;-63
2024/01/22 11:45:13;;;;;;;17.00;12.40;;;;;;;5.18;52.47;101277.23;104876;1266;60167;-64
2024/01/22 11:47:43;;;;;;;16.10;12.50;;;;;;;5.12;51.88;101271.81;103820;1269;60507;-64
2024/01/22 11:50:57;;;;;;;15.20;11.00;;;;;;;5.08;51.99;101279.96;104589;1265;72325;-64
2024/01/22 11:53:25;;;;;;;17.30;13.00;;;;;;;4.93;52.34;101284.04;104509;1269;70254;-63
2024/01/22 11:59:29;;;;;;;23.40;15.20;;;;;;;4.81;52.56;101281.36;104157;1267;60922;-64
2024/01/22 12:06:04;;;;;;;20.30;14.30;;;;;;;4.76;52.14;101280.80;104650;1264;71958;-64
2024/01/22 12:09:16;;;;;;;59.50;33.40;;;;;;;4.67;52.29;101283.86;106233;1261;69849;-65
2024/01/22 12:11:50;;;;;;;38.20;20.60;;;;;;;4.63;52.23;101275.48;104823;1266;71541;-64
2024/01/22 12:15:02;;;;;;;34.90;18.80;;;;;;;4.67;52.43;101281.41;104956;1261;60958;-63
2024/01/22 12:17:42;;;;;;;58.50;29.40;;;;;;;4.81;52.52;101289.34;104319;1264;60618;-63
2024/01/22 12:20:15;;;;;;;41.50;23.80;;;;;;;4.87;52.50;101280.00;103878;1270;71988;-61
2024/01/22 12:23:34;;;;;;;27.00;16.20;;;;;;;4.78;52.20;101267.96;104366;1263;69597;-62
2024/01/22 12:26:45;;;;;;;47.00;21.10;;;;;;;4.79;52.25;101269.35;104628;1265;72547;-58
2024/01/22 12:29:38;;;;;;;29.00;18.20;;;;;;;4.72;52.01;101269.47;103803;1276;61390;-61
2024/01/22 12:32:49;;;;;;;28.00;20.00;;;;;;;4.66;52.07;101265.95;105200;1262;59748;-63
2024/01/22 12:39:10;;;;;;;25.60;14.60;;;;;;;4.55;52.20;101255.79;104278;1263;69581;-62
2024/01/22 12:42:00;;;;;;;17.50;13.10;;;;;;;4.47;52.50;101258.88;104211;1266;72725;-63
2024/01/22 12:45:11;;;;;;;65.10;33.30;;;;;;;4.37;52.72;101252.70;103999;1280;62120;-65
2024/01/22 12:48:22;;;;;;;33.50;18.90;;;;;;;4.32;52.71;101254.39;104413;1268;60067;-64
2024/01/22 12:55:41;;;;;;;14.50;11.30;;;;;;;4.30;53.04;101259.93;104684;1263;69796;-64
2024/01/22 13:01:56;;;;;;;14.10;12.00;;;;;;;4.34;52.62;101250.77;104617;1266;60747;-63
2024/01/22 13:09:30;;;;;;;17.20;12.40;;;;;;;4.22;53.33;101237.13;104784;1263;74398;-64
2024/01/22 13:12:00;;;;;;;16.10;13.00;;;;;;;4.23;53.91;101223.41;104724;1266;70434;-63
2024/01/22 13:14:36;;;;;;;15.00;12.00;;;;;;;4.31;53.52;101214.98;104471;1266;73024;-63
2024/01/22 13:17:47;;;;;;;15.10;12.40;;;;;;;4.34;53.57;101213.45;105071;1266;62690;-62
2024/01/22 13:28:20;;;;;;;18.00;13.40;;;;;;;4.31;53.41;101200.05;105082;1266;68773;-65
2024/01/22 13:46:17;;;;;;;17.30;12.80;;;;;;;4.18;53.98;101196.66;104125;1269;70953;-69
2024/01/22 13:53:12;;;;;;;26.30;18.00;;;;;;;4.39;54.36;101179.45;104855;1262;59679;-68
2024/01/22 13:56:22;;;;;;;22.50;15.40;;;;;;;4.39;54.01;101174.59;104054;1270;60065;-69
2024/01/22 13:59:27;;;;;;;21.30;14.60;;;;;;;4.46;53.70;101165.27;104127;1270;72998;-68
2024/01/22 14:02:00;;;;;;;20.30;14.20;;;;;;;4.47;53.89;101161.63;104430;1268;69795;-68
2024/01/22 14:05:11;;;;;;;18.60;12.80;;;;;;;4.43;53.81;101153.77;104362;1267;72568;-71
2024/01/22 14:08:23;;;;;;;17.30;13.10;;;;;;;4.37;53.99;101153.04;104542;1264;60908;-69
2024/01/22 14:15:54;;;;;;;16.60;12.20;;;;;;;4.39;54.34;101155.30;104432;1257;73512;-68
2024/01/22 14:19:06;;;;;;;15.30;11.60;;;;;;;4.48;54.50;101151.03;104637;1258;70987;-64
2024/01/22 14:22:20;;;;;;;20.30;13.40;;;;;;;4.47;53.74;101163.02;104910;1256;72459;-68
2024/01/22 14:25:31;;;;;;;15.10;11.90;;;;;;;4.55;53.60;101156.80;104703;1256;59836;-67
2024/01/22 14:28:42;;;;;;;16.00;12.80;;;;;;;4.57;54.16;101153.19;105212;1260;61157;-66
2024/01/22 14:35:26;;;;;;;16.50;12.40;;;;;;;4.70;54.07;101138.65;104740;1256;69746;-68
2024/01/22 14:38:41;;;;;;;14.20;11.60;;;;;;;4.69;53.91;101133.61;104980;1269;72599;-67
2024/01/22 14:45:45;;;;;;;18.50;12.10;;;;;;;4.78;53.83;101129.83;104364;1256;60154;-62
2024/01/22 14:53:17;;;;;;;27.40;20.20;;;;;;;4.74;53.75;101124.77;104663;1260;70333;-66
2024/01/22 14:56:17;;;;;;;21.20;14.30;;;;;;;4.67;53.94;101115.70;104783;1260;73250;-69
2024/01/22 14:58:50;;;;;;;24.20;17.50;;;;;;;4.77;53.94;101117.85;104304;1258;60151;-67
2024/01/22 15:01:26;;;;;;;19.70;14.80;;;;;;;4.75;54.07;101130.86;104606;1268;59661;-68